Saturday, August 1, 2015, 12:08 PM EDT

KOFP, Hanover County Municipal

Location: Ashland, VA, United States Lat: 37.7
Local Time: 12:08 PM EDT (16:08 GMT) Lon: -77.433
Time Zone: US/Eastern Elev: 203 ft

Show me the last for .
Show Decoded

2015-08-01 11:54 METAR KOFP 011554Z AUTO VRB06KT 10SM CLR 30/17 A2993 RMK AO2 SLP133 T03000172 =
2015-08-01 10:54 METAR KOFP 011454Z AUTO 29006KT 10SM CLR 29/18 A2993 RMK AO2 SLP133 T02890178
                 51002 =
2015-08-01 09:54 METAR KOFP 011354Z AUTO 27004KT 10SM CLR 27/18 A2993 RMK AO2 SLP133 T02720183 =
2015-08-01 08:54 METAR KOFP 011254Z AUTO 22003KT 10SM CLR 25/18 A2993 RMK AO2 SLP133 T02500183 =
2015-08-01 07:54 METAR KOFP 011154Z AUTO 00000KT 10SM CLR 22/18 A2993 RMK AO2 SLP132 T02220178
                 10222 20178 53007 =
2015-08-01 06:54 METAR KOFP 011054Z AUTO 00000KT 9SM CLR 18/17 A2992 RMK AO2 SLP128 T01830172 =
2015-08-01 05:54 METAR KOFP 010954Z AUTO 00000KT 10SM CLR 19/17 A2991 RMK AO2 SLP125 T01890167 =
2015-08-01 04:54 METAR KOFP 010854Z AUTO 22003KT 10SM CLR 18/17 A2991 RMK AO2 SLP124 T01830172
                 56007 =
2015-08-01 03:54 METAR KOFP 010754Z AUTO 00000KT 10SM CLR 18/17 A2991 RMK AO2 SLP126 T01780172 =
2015-08-01 02:54 METAR KOFP 010654Z AUTO 00000KT 10SM CLR 18/17 A2992 RMK AO2 SLP128 T01830172 =
2015-08-01 01:54 METAR KOFP 010554Z AUTO 00000KT 10SM CLR 19/18 A2993 RMK AO2 SLP131 T01940178
                 10244 20194 58007 =
2015-08-01 00:54 METAR KOFP 010454Z AUTO 00000KT 10SM CLR 19/18 A2994 RMK AO2 SLP134 T01940183
                 403110194 =
2015-07-31 23:54 METAR KOFP 010354Z AUTO 00000KT 10SM CLR 20/18 A2994 RMK AO2 SLP137 T02000183 =
2015-07-31 22:54 METAR KOFP 010254Z AUTO 00000KT 10SM CLR 21/19 A2995 RMK AO2 SLP138 T02110194
                 51013 =
2015-07-31 21:54 METAR KOFP 010154Z AUTO 00000KT 10SM CLR 22/19 A2994 RMK AO2 SLP137 T02170189 =
2015-07-31 20:54 METAR KOFP 010054Z AUTO 00000KT 10SM CLR 22/19 A2992 RMK AO2 SLP131 T02220194 =
2015-07-31 19:54 METAR KOFP 312354Z AUTO 00000KT 10SM CLR 24/21 A2991 RMK AO2 SLP125 T02440206
                 10311 20244 53000 =
2015-07-31 18:54 METAR KOFP 312254Z AUTO 00000KT 10SM CLR 29/19 A2989 RMK AO2 SLP119 T02890189 =
2015-07-31 17:54 METAR KOFP 312154Z AUTO 00000KT 10SM CLR 31/17 A2989 RMK AO2 SLP120 T03060167 =
2015-07-31 16:54 METAR KOFP 312054Z AUTO 30006KT 10SM CLR 31/16 A2991 RMK AO2 SLP124 T03110156
                 56020 =
2015-07-31 15:54 METAR KOFP 311954Z AUTO VRB03KT 10SM CLR 31/16 A2992 RMK AO2 SLP128 T03060161 =
2015-07-31 14:54 METAR KOFP 311854Z AUTO 00000KT 10SM CLR 31/16 A2994 RMK AO2 SLP137 T03110161 =
2015-07-31 13:54 METAR KOFP 311754Z AUTO VRB03KT 10SM CLR 31/16 A2997 RMK AO2 SLP144 T03060156
                 10306 20233 58007 =
2015-07-31 12:54 METAR KOFP 311654Z AUTO 30007KT 10SM CLR 30/16 A2998 RMK AO2 SLP148 T03000161 =

Support USWX by starting your Amazon purchase here.